createdAt,value
2018-02-02T00:00:28.865Z,79.50
2018-02-02T00:01:02.530Z,79.50
2018-02-02T00:01:36.176Z,79.70
2018-02-02T00:02:10.614Z,79.70
2018-02-02T00:02:44.296Z,79.70
2018-02-02T00:03:17.955Z,80.10
2018-02-02T00:03:51.606Z,79.90
2018-02-02T00:04:25.258Z,79.80
2018-02-02T00:04:58.917Z,79.80
2018-02-02T00:05:32.578Z,79.90
2018-02-02T00:06:06.232Z,80.70
2018-02-02T00:06:39.899Z,80.00
2018-02-02T00:07:13.652Z,80.00
2018-02-02T00:07:47.341Z,79.90
2018-02-02T00:08:21.020Z,79.80
2018-02-02T00:08:54.681Z,79.90
2018-02-02T00:09:28.336Z,80.00
2018-02-02T00:10:01.995Z,80.10
2018-02-02T00:10:35.663Z,80.50
2018-02-02T00:11:09.333Z,80.10
2018-02-02T00:11:42.993Z,80.20
2018-02-02T00:12:16.670Z,80.20
2018-02-02T00:12:50.352Z,80.20
2018-02-02T00:13:24.002Z,80.20
2018-02-02T00:13:57.662Z,80.20
2018-02-02T00:14:32.093Z,80.30
2018-02-02T00:15:05.753Z,80.30
2018-02-02T00:15:40.184Z,80.30
2018-02-02T00:16:13.892Z,80.30
2018-02-02T00:16:47.545Z,80.30
2018-02-02T00:17:21.968Z,80.30
2018-02-02T00:17:55.666Z,80.30
2018-02-02T00:18:29.329Z,80.30
2018-02-02T00:19:03.743Z,80.40
2018-02-02T00:19:38.170Z,80.40
2018-02-02T00:20:11.839Z,80.40
2018-02-02T00:20:46.254Z,80.30
2018-02-02T00:21:19.973Z,80.30
2018-02-02T00:21:57.398Z,80.40
2018-02-02T00:22:31.052Z,80.30
2018-02-02T00:23:04.749Z,80.30
2018-02-02T00:23:38.411Z,80.20
2018-02-02T00:24:12.078Z,80.40
2018-02-02T00:24:45.741Z,80.30
2018-02-02T00:25:19.407Z,80.30
2018-02-02T00:25:53.063Z,80.40
2018-02-02T00:26:26.721Z,80.40
2018-02-02T00:27:01.151Z,80.40
2018-02-02T00:27:34.810Z,80.40
2018-02-02T00:28:08.498Z,80.40
2018-02-02T00:28:42.150Z,80.40
2018-02-02T00:29:15.839Z,80.50
2018-02-02T00:29:49.506Z,80.40
2018-02-02T00:30:23.304Z,80.50
2018-02-02T00:30:56.957Z,80.60
2018-02-02T00:31:31.370Z,80.70
2018-02-02T00:32:05.800Z,80.60
2018-02-02T00:32:39.460Z,80.60
2018-02-02T00:33:13.907Z,80.50
2018-02-02T00:33:47.557Z,80.50
2018-02-02T00:34:21.973Z,80.60
2018-02-02T00:34:56.410Z,80.60
2018-02-02T00:35:30.061Z,80.60
2018-02-02T00:36:04.150Z,80.60
2018-02-02T00:36:37.478Z,80.50
2018-02-02T00:37:11.121Z,80.50
2018-02-02T00:37:44.770Z,80.50
2018-02-02T00:38:18.446Z,80.40
2018-02-02T00:38:52.102Z,80.40
2018-02-02T00:39:26.521Z,80.60
2018-02-02T00:40:00.179Z,80.60
2018-02-02T00:40:33.848Z,80.60
2018-02-02T00:41:07.506Z,80.60
2018-02-02T00:41:41.160Z,80.80
2018-02-02T00:42:15.569Z,80.70
2018-02-02T00:42:49.987Z,80.80
2018-02-02T00:43:23.011Z,80.80
2018-02-02T00:43:56.670Z,80.80
2018-02-02T00:44:30.318Z,80.80
2018-02-02T00:45:03.653Z,80.80
2018-02-02T00:45:37.314Z,80.80
2018-02-02T00:46:17.814Z,80.80
2018-02-02T00:46:51.481Z,80.80
2018-02-02T00:47:25.144Z,80.80
2018-02-02T00:47:58.810Z,80.80
2018-02-02T00:48:33.266Z,81.00
2018-02-02T00:49:06.917Z,81.00
2018-02-02T00:49:41.350Z,81.00
2018-02-02T00:50:14.833Z,81.00
2018-02-02T00:50:55.037Z,81.10
2018-02-02T00:51:34.349Z,81.10
2018-02-02T00:52:08.018Z,81.10
2018-02-02T00:52:41.678Z,81.10
2018-02-02T00:53:15.329Z,81.10
2018-02-02T00:53:49.021Z,81.10
2018-02-02T00:54:23.437Z,81.20
2018-02-02T00:54:57.857Z,81.20
2018-02-02T00:55:31.510Z,81.10
2018-02-02T00:56:04.846Z,81.30
2018-02-02T00:56:38.507Z,81.30
2018-02-02T00:57:12.181Z,81.20
2018-02-02T00:57:45.654Z,81.20
2018-02-02T00:58:19.141Z,81.30
2018-02-02T00:58:52.853Z,81.30
2018-02-02T00:59:27.278Z,81.40
2018-02-02T01:00:00.947Z,81.40
2018-02-02T01:00:35.387Z,81.50
2018-02-02T01:01:09.038Z,81.50
2018-02-02T01:01:43.452Z,81.50
2018-02-02T01:02:17.887Z,81.50
2018-02-02T01:02:51.537Z,81.50
2018-02-02T01:03:25.190Z,81.60
2018-02-02T01:03:58.870Z,81.70
2018-02-02T01:04:32.530Z,81.70
2018-02-02T01:05:06.193Z,81.70
2018-02-02T01:05:39.847Z,81.60
2018-02-02T01:06:13.498Z,81.60
2018-02-02T01:06:47.161Z,81.70
2018-02-02T01:07:20.842Z,81.70
2018-02-02T01:07:54.510Z,81.80
2018-02-02T01:08:28.153Z,81.70
2018-02-02T01:09:02.497Z,81.70
2018-02-02T01:09:37.786Z,81.70
2018-02-02T01:10:11.438Z,81.70
2018-02-02T01:10:45.097Z,81.70
2018-02-02T01:11:18.746Z,81.70
2018-02-02T01:11:53.161Z,81.80
2018-02-02T01:12:26.815Z,81.80
2018-02-02T01:13:00.464Z,81.80
2018-02-02T01:13:34.155Z,81.90
2018-02-02T01:14:07.526Z,81.90
2018-02-02T01:14:41.176Z,82.00
2018-02-02T01:15:14.821Z,82.00
2018-02-02T01:15:48.482Z,81.90
2018-02-02T01:16:22.158Z,82.00
2018-02-02T01:16:56.578Z,82.00
2018-02-02T01:17:30.238Z,82.00
2018-02-02T01:18:03.898Z,82.10
2018-02-02T01:18:37.585Z,82.10
2018-02-02T01:19:11.255Z,82.10
2018-02-02T01:19:44.926Z,82.10
2018-02-02T01:20:18.606Z,82.20
2018-02-02T01:20:52.378Z,82.10
2018-02-02T01:21:26.027Z,82.10
2018-02-02T01:21:59.674Z,82.10
2018-02-02T01:22:34.107Z,82.20
2018-02-02T01:23:07.762Z,82.20
2018-02-02T01:23:42.185Z,82.30
2018-02-02T01:24:16.647Z,82.90
2018-02-02T01:24:50.305Z,82.30
2018-02-02T01:25:23.962Z,82.30
2018-02-02T01:25:58.371Z,82.30
2018-02-02T01:26:32.793Z,82.20
2018-02-02T01:27:06.448Z,82.20
2018-02-02T01:27:40.095Z,82.30
2018-02-02T01:28:13.741Z,82.30
2018-02-02T01:28:48.162Z,82.30
2018-02-02T01:29:21.854Z,82.30
2018-02-02T01:29:55.508Z,82.30
2018-02-02T01:30:29.151Z,82.40
2018-02-02T01:31:02.818Z,83.10
2018-02-02T01:31:36.476Z,82.60
2018-02-02T01:32:10.131Z,82.60
2018-02-02T01:32:43.778Z,83.30
2018-02-02T01:33:18.210Z,82.70
2018-02-02T01:33:51.869Z,82.60
2018-02-02T01:34:26.324Z,82.70
2018-02-02T01:34:59.993Z,82.70
2018-02-02T01:35:33.650Z,82.70
2018-02-02T01:36:08.067Z,82.90
2018-02-02T01:36:42.495Z,82.90
2018-02-02T01:37:16.187Z,82.90
2018-02-02T01:37:49.849Z,83.00
2018-02-02T01:38:24.348Z,83.00
2018-02-02T01:38:58.765Z,83.00
2018-02-02T01:39:33.235Z,83.00
2018-02-02T01:40:06.887Z,83.00
2018-02-02T01:40:40.558Z,83.00
2018-02-02T01:41:14.985Z,83.10
2018-02-02T01:41:48.645Z,82.90
2018-02-02T01:42:23.053Z,83.10
2018-02-02T01:42:57.475Z,83.10
2018-02-02T01:43:31.178Z,83.10
2018-02-02T01:44:04.849Z,83.20
2018-02-02T01:44:37.877Z,83.20
2018-02-02T01:45:11.538Z,83.20
2018-02-02T01:45:45.201Z,83.20
2018-02-02T01:46:18.852Z,83.20
2018-02-02T01:46:52.497Z,83.20
2018-02-02T01:47:26.162Z,83.30
2018-02-02T01:48:11.722Z,83.40
2018-02-02T01:48:46.133Z,83.40
2018-02-02T01:49:20.564Z,83.40
2018-02-02T01:49:54.259Z,83.40
2018-02-02T01:50:27.913Z,83.40
2018-02-02T01:51:02.349Z,83.50
2018-02-02T01:51:36.009Z,83.40
2018-02-02T01:52:10.422Z,83.60
2018-02-02T01:52:44.845Z,83.50
2018-02-02T01:53:18.513Z,83.50
2018-02-02T01:53:52.934Z,83.60
2018-02-02T01:54:27.368Z,83.70
2018-02-02T01:55:01.061Z,83.70
2018-02-02T01:55:34.530Z,83.70
2018-02-02T01:56:07.549Z,83.70
2018-02-02T01:56:41.204Z,83.70
2018-02-02T01:57:14.858Z,83.70
2018-02-02T01:57:49.271Z,83.80
2018-02-02T01:58:23.702Z,83.80
2018-02-02T01:58:57.362Z,83.80
2018-02-02T01:59:31.773Z,83.80
2018-02-02T02:00:05.566Z,84.00
2018-02-02T02:00:39.994Z,84.00
2018-02-02T02:01:13.658Z,84.00
2018-02-02T02:01:48.094Z,84.10
2018-02-02T02:02:21.745Z,84.00
2018-02-02T02:02:56.162Z,84.00
2018-02-02T02:03:30.573Z,84.00
2018-02-02T02:04:04.333Z,84.00
2018-02-02T02:04:37.997Z,84.00
2018-02-02T02:05:11.682Z,84.10
2018-02-02T02:05:45.341Z,84.10
2018-02-02T02:06:19.772Z,84.10
2018-02-02T02:06:53.423Z,84.10
2018-02-02T02:07:27.842Z,84.10
2018-02-02T02:08:01.490Z,84.10
2018-02-02T02:08:35.137Z,84.10
2018-02-02T02:09:08.460Z,84.20
2018-02-02T02:09:42.124Z,84.20
2018-02-02T02:10:15.989Z,84.20
2018-02-02T02:10:49.638Z,84.30
2018-02-02T02:11:23.291Z,84.30
2018-02-02T02:11:56.940Z,84.40
2018-02-02T02:12:31.373Z,84.40
2018-02-02T02:13:05.034Z,84.40
2018-02-02T02:13:39.448Z,84.40
2018-02-02T02:14:13.873Z,84.40
2018-02-02T02:14:47.531Z,84.40
2018-02-02T02:15:21.289Z,84.40
2018-02-02T02:15:54.956Z,84.50
2018-02-02T02:16:28.613Z,84.40
2018-02-02T02:17:03.051Z,84.50
2018-02-02T02:17:36.702Z,84.50
2018-02-02T02:18:10.024Z,84.50
2018-02-02T02:18:43.679Z,84.50
2018-02-02T02:19:18.102Z,84.50
2018-02-02T02:19:51.756Z,84.50
2018-02-02T02:20:25.440Z,84.50
2018-02-02T02:20:59.089Z,84.50
2018-02-02T02:21:32.740Z,84.50
2018-02-02T02:22:07.176Z,85.10
2018-02-02T02:22:40.493Z,84.50
2018-02-02T02:23:14.151Z,84.50
2018-02-02T02:23:47.814Z,84.50
2018-02-02T02:24:22.430Z,84.50
2018-02-02T02:24:56.083Z,84.50
2018-02-02T02:25:31.282Z,84.60
2018-02-02T02:26:04.959Z,84.50
2018-02-02T02:26:38.611Z,84.60
2018-02-02T02:27:13.049Z,84.60
2018-02-02T02:27:46.055Z,84.60
2018-02-02T02:28:19.720Z,84.60
2018-02-02T02:28:53.375Z,84.60
2018-02-02T02:29:27.814Z,84.70
2018-02-02T02:30:01.165Z,84.70
2018-02-02T02:30:35.622Z,84.80
2018-02-02T02:31:09.292Z,84.80
2018-02-02T02:31:42.950Z,84.70
2018-02-02T02:32:17.388Z,84.80
2018-02-02T02:32:51.046Z,84.80
2018-02-02T02:33:25.477Z,84.80
2018-02-02T02:33:59.148Z,84.80
2018-02-02T02:34:33.575Z,84.70
2018-02-02T02:35:07.230Z,84.70
2018-02-02T02:35:41.676Z,84.70
2018-02-02T02:36:15.328Z,84.70
2018-02-02T02:36:49.752Z,84.90
2018-02-02T02:37:23.403Z,84.70
2018-02-02T02:37:57.066Z,84.70
2018-02-02T02:38:30.726Z,84.70
2018-02-02T02:39:03.530Z,84.70
2018-02-02T02:39:37.190Z,84.80
2018-02-02T02:40:10.841Z,84.90
2018-02-02T02:40:44.542Z,84.90
2018-02-02T02:41:18.963Z,84.90
2018-02-02T02:41:52.609Z,84.90
2018-02-02T02:42:26.262Z,84.90
2018-02-02T02:42:59.924Z,84.90
2018-02-02T02:43:34.345Z,84.90
2018-02-02T02:44:08.004Z,84.90
2018-02-02T02:44:41.662Z,84.80
2018-02-02T02:45:15.318Z,85.00
2018-02-02T02:45:49.282Z,84.90
2018-02-02T02:46:22.941Z,85.00
2018-02-02T02:46:56.595Z,85.00
2018-02-02T02:47:30.244Z,85.00
2018-02-02T02:48:03.561Z,84.90
2018-02-02T02:48:37.213Z,85.00
2018-02-02T02:49:10.873Z,84.90
2018-02-02T02:49:44.530Z,85.10
2018-02-02T02:50:18.190Z,84.80
2018-02-02T02:50:52.634Z,84.90
2018-02-02T02:51:26.277Z,84.90
2018-02-02T02:51:59.930Z,84.90
2018-02-02T02:52:33.594Z,85.10
2018-02-02T02:53:07.268Z,85.00
2018-02-02T02:53:41.686Z,85.00
2018-02-02T02:54:15.342Z,85.00
2018-02-02T02:54:48.989Z,85.00
2018-02-02T02:55:22.657Z,85.00
2018-02-02T02:55:56.361Z,85.00
2018-02-02T02:56:30.009Z,84.90
2018-02-02T02:57:03.653Z,85.00
2018-02-02T02:57:37.312Z,84.90
2018-02-02T02:58:10.973Z,85.00
2018-02-02T02:58:45.414Z,85.40
2018-02-02T02:59:19.083Z,85.00
2018-02-02T02:59:53.494Z,85.20
2018-02-02T03:00:27.153Z,85.20
2018-02-02T03:01:00.845Z,85.20
2018-02-02T03:01:34.513Z,85.20
2018-02-02T03:02:08.170Z,85.30
2018-02-02T03:02:41.843Z,85.30
2018-02-02T03:03:15.497Z,85.30
2018-02-02T03:03:49.162Z,85.30
2018-02-02T03:04:22.822Z,85.30
2018-02-02T03:04:56.482Z,85.40
2018-02-02T03:05:30.918Z,85.40
2018-02-02T03:06:04.609Z,85.30
2018-02-02T03:06:38.255Z,85.30
2018-02-02T03:07:11.908Z,85.20
2018-02-02T03:07:45.554Z,85.30
2018-02-02T03:08:19.972Z,85.30
2018-02-02T03:08:53.630Z,85.30
2018-02-02T03:09:27.290Z,85.30
2018-02-02T03:10:00.942Z,85.30
2018-02-02T03:10:34.587Z,85.20
2018-02-02T03:11:08.256Z,85.30
2018-02-02T03:11:41.908Z,85.20
2018-02-02T03:12:15.614Z,85.20
2018-02-02T03:12:49.297Z,85.20
2018-02-02T03:13:22.943Z,85.20
2018-02-02T03:13:56.261Z,85.10
2018-02-02T03:14:29.916Z,85.20
2018-02-02T03:15:03.573Z,85.10
2018-02-02T03:15:37.226Z,85.10
2018-02-02T03:16:10.897Z,85.10
2018-02-02T03:16:45.318Z,85.30
2018-02-02T03:17:18.969Z,85.30
2018-02-02T03:17:52.634Z,85.30
2018-02-02T03:18:26.365Z,85.30
2018-02-02T03:19:00.783Z,85.90
2018-02-02T03:19:35.204Z,85.40
2018-02-02T03:20:08.851Z,85.30
2018-02-02T03:20:42.507Z,85.30
2018-02-02T03:21:16.196Z,85.40
2018-02-02T03:21:49.862Z,85.50
2018-02-02T03:22:23.506Z,85.50
2018-02-02T03:22:57.435Z,85.50
2018-02-02T03:23:31.849Z,85.50
2018-02-02T03:24:05.492Z,85.50
2018-02-02T03:24:39.129Z,85.60
2018-02-02T03:25:12.774Z,85.60
2018-02-02T03:25:47.192Z,85.70
2018-02-02T03:26:20.876Z,85.70
2018-02-02T03:26:54.526Z,85.60
2018-02-02T03:27:28.180Z,85.60
2018-02-02T03:28:02.585Z,85.60
2018-02-02T03:28:36.668Z,85.70
2018-02-02T03:29:11.094Z,85.50
2018-02-02T03:29:45.509Z,85.90
2018-02-02T03:30:19.163Z,85.90
2018-02-02T03:30:52.489Z,85.80
2018-02-02T03:31:26.170Z,85.90
2018-02-02T03:31:59.833Z,85.90
2018-02-02T03:32:34.255Z,85.90
2018-02-02T03:33:08.671Z,86.00
2018-02-02T03:33:42.317Z,86.00
2018-02-02T03:34:15.960Z,85.90
2018-02-02T03:34:49.601Z,85.90
2018-02-02T03:35:23.252Z,85.90
2018-02-02T03:35:56.910Z,86.00
2018-02-02T03:36:31.358Z,86.00
2018-02-02T03:37:05.016Z,86.00
2018-02-02T03:37:38.660Z,86.00
2018-02-02T03:38:12.309Z,86.10
2018-02-02T03:38:45.970Z,86.00
2018-02-02T03:39:20.386Z,86.00
2018-02-02T03:39:54.053Z,86.00
2018-02-02T03:40:28.472Z,86.10
2018-02-02T03:41:02.230Z,86.20
2018-02-02T03:41:35.906Z,86.10
2018-02-02T03:42:09.548Z,86.10
2018-02-02T03:42:44.021Z,86.10
2018-02-02T03:43:18.580Z,86.10
2018-02-02T03:43:52.245Z,86.10
2018-02-02T03:44:26.654Z,86.20
2018-02-02T03:45:01.072Z,86.10
2018-02-02T03:45:34.842Z,86.20
2018-02-02T03:46:08.523Z,86.20
2018-02-02T03:46:42.369Z,86.20
2018-02-02T03:47:16.023Z,86.30
2018-02-02T03:47:50.432Z,86.30
2018-02-02T03:48:24.872Z,86.30
2018-02-02T03:48:58.528Z,86.30
2018-02-02T03:49:32.933Z,86.50
2018-02-02T03:50:07.168Z,86.50
2018-02-02T03:50:40.632Z,86.50
2018-02-02T03:51:15.042Z,86.70
2018-02-02T03:51:49.166Z,86.70
2018-02-02T03:52:22.816Z,86.80
2018-02-02T03:52:56.659Z,86.80
2018-02-02T03:53:30.327Z,86.90
2018-02-02T03:54:03.627Z,86.80
2018-02-02T03:54:37.282Z,86.80
2018-02-02T03:55:11.722Z,86.90
2018-02-02T03:55:45.365Z,86.90
2018-02-02T03:56:19.820Z,87.00
2018-02-02T03:56:54.414Z,86.90
2018-02-02T03:57:27.397Z,87.00
2018-02-02T03:58:01.050Z,87.00
2018-02-02T03:58:35.549Z,87.00
2018-02-02T03:59:09.994Z,87.10
2018-02-02T03:59:43.657Z,87.00
2018-02-02T04:00:18.066Z,87.10
2018-02-02T04:00:52.485Z,87.20
2018-02-02T04:01:26.162Z,87.10
2018-02-02T04:02:00.605Z,87.20
2018-02-02T04:02:34.261Z,87.20
2018-02-02T04:03:08.702Z,87.40
2018-02-02T04:03:41.698Z,87.40
2018-02-02T04:04:15.353Z,87.40
2018-02-02T04:04:49.004Z,87.40
2018-02-02T04:05:22.656Z,87.40
2018-02-02T04:05:56.316Z,87.40
2018-02-02T04:06:29.975Z,87.50
2018-02-02T04:07:03.660Z,87.60
2018-02-02T04:07:37.313Z,87.70
2018-02-02T04:08:10.975Z,87.80
2018-02-02T04:08:44.285Z,87.80
2018-02-02T04:09:17.949Z,87.70
2018-02-02T04:09:51.598Z,87.60
2018-02-02T04:10:25.244Z,87.50
2018-02-02T04:10:58.892Z,87.40
2018-02-02T04:11:33.320Z,87.50
2018-02-02T04:12:07.298Z,87.50
2018-02-02T04:12:41.736Z,87.70
2018-02-02T04:13:15.389Z,87.50
2018-02-02T04:13:49.798Z,87.60
2018-02-02T04:14:24.208Z,87.60
2018-02-02T04:14:58.301Z,87.60
2018-02-02T04:15:32.714Z,87.60
2018-02-02T04:16:07.133Z,87.60
2018-02-02T04:16:40.793Z,87.60
2018-02-02T04:17:15.991Z,87.50
2018-02-02T04:17:49.650Z,87.50
2018-02-02T04:18:23.305Z,87.50
2018-02-02T04:18:56.783Z,87.50
2018-02-02T04:19:30.111Z,87.50
2018-02-02T04:20:03.446Z,87.50
2018-02-02T04:20:37.085Z,87.40
2018-02-02T04:21:10.721Z,87.50
2018-02-02T04:21:44.412Z,87.30
2018-02-02T04:22:18.098Z,87.30
2018-02-02T04:22:51.757Z,87.60
2018-02-02T04:23:26.172Z,87.20
2018-02-02T04:23:59.834Z,87.10
2018-02-02T04:24:33.485Z,87.00
2018-02-02T04:25:07.906Z,86.90
2018-02-02T04:25:42.335Z,86.80
2018-02-02T04:26:15.999Z,86.80
2018-02-02T04:26:50.431Z,86.80
2018-02-02T04:27:23.878Z,86.80
2018-02-02T04:27:58.116Z,86.80
2018-02-02T04:28:31.770Z,86.70
2018-02-02T04:29:05.414Z,86.80
2018-02-02T04:29:39.075Z,86.70
2018-02-02T04:30:12.743Z,86.70
2018-02-02T04:30:47.165Z,86.60
2018-02-02T04:31:20.826Z,86.60
2018-02-02T04:31:54.468Z,86.50
2018-02-02T04:32:28.150Z,85.80
2018-02-02T04:33:01.793Z,86.50
2018-02-02T04:33:35.257Z,86.50
2018-02-02T04:34:08.717Z,86.40
2018-02-02T04:34:42.192Z,86.40
2018-02-02T04:35:16.430Z,86.40
2018-02-02T04:35:50.307Z,86.40
2018-02-02T04:36:26.257Z,86.30
2018-02-02T04:36:59.713Z,86.30
2018-02-02T04:37:33.198Z,86.20
2018-02-02T04:38:06.664Z,86.30
2018-02-02T04:38:40.138Z,86.30
2018-02-02T04:39:14.570Z,86.20
2018-02-02T04:39:48.232Z,86.20
2018-02-02T04:40:22.657Z,86.20
2018-02-02T04:40:56.317Z,86.20
2018-02-02T04:41:30.722Z,86.20
2018-02-02T04:42:04.381Z,86.20
2018-02-02T04:42:37.758Z,86.10
2018-02-02T04:43:11.413Z,86.00
2018-02-02T04:43:45.069Z,86.00
2018-02-02T04:44:18.724Z,86.00
2018-02-02T04:44:52.381Z,85.50
2018-02-02T04:45:26.054Z,86.00
2018-02-02T04:46:00.154Z,85.90
2018-02-02T04:46:34.594Z,86.00
2018-02-02T04:47:08.253Z,85.90
2018-02-02T04:47:42.697Z,85.90
2018-02-02T04:48:16.376Z,85.90
2018-02-02T04:48:49.853Z,85.80
2018-02-02T04:49:23.512Z,85.80
2018-02-02T04:49:57.607Z,85.70
2018-02-02T04:50:31.288Z,85.70
2018-02-02T04:51:04.952Z,85.70
2018-02-02T04:51:38.601Z,85.60
2018-02-02T04:52:12.263Z,85.60
2018-02-02T04:52:45.946Z,85.50
2018-02-02T04:53:19.598Z,85.60
2018-02-02T04:53:53.263Z,85.50
2018-02-02T04:54:26.977Z,85.40
2018-02-02T04:55:01.569Z,85.40
2018-02-02T04:55:35.229Z,85.30
2018-02-02T04:56:09.646Z,85.30
2018-02-02T04:56:43.409Z,85.20
2018-02-02T04:57:17.069Z,85.20
2018-02-02T04:57:50.758Z,85.20
2018-02-02T04:58:24.418Z,85.20
2018-02-02T04:58:58.076Z,85.20
2018-02-02T04:59:31.733Z,85.10
2018-02-02T05:00:05.389Z,85.10
2018-02-02T05:00:39.050Z,85.10
2018-02-02T05:01:13.453Z,85.10
2018-02-02T05:01:47.099Z,85.10
2018-02-02T05:02:20.757Z,85.10
2018-02-02T05:02:54.440Z,85.00
2018-02-02T05:03:28.861Z,85.10
2018-02-02T05:04:02.505Z,85.00
2018-02-02T05:04:35.979Z,85.00
2018-02-02T05:05:09.624Z,85.00
2018-02-02T05:05:43.287Z,85.00
2018-02-02T05:06:17.705Z,85.10
2018-02-02T05:06:52.124Z,85.20
2018-02-02T05:07:25.781Z,85.20
2018-02-02T05:07:59.460Z,85.80
2018-02-02T05:08:33.118Z,85.20
2018-02-02T05:09:06.771Z,85.10
2018-02-02T05:09:40.549Z,85.10
2018-02-02T05:10:14.986Z,85.20
2018-02-02T05:10:48.646Z,85.00
2018-02-02T05:11:23.078Z,85.10
2018-02-02T05:11:56.533Z,85.10
2018-02-02T05:12:30.765Z,85.10
2018-02-02T05:13:03.795Z,85.10
2018-02-02T05:13:37.457Z,85.10
2018-02-02T05:14:11.157Z,85.10
2018-02-02T05:14:44.804Z,85.10
2018-02-02T05:15:18.461Z,85.10
2018-02-02T05:15:52.893Z,84.90
2018-02-02T05:16:26.553Z,84.90
2018-02-02T05:17:00.206Z,84.80
2018-02-02T05:17:33.870Z,84.80
2018-02-02T05:18:07.381Z,84.90
2018-02-02T05:18:40.841Z,84.80
2018-02-02T05:19:14.323Z,84.80
2018-02-02T05:19:47.981Z,84.80
2018-02-02T05:20:21.629Z,84.70
2018-02-02T05:20:55.283Z,84.70
2018-02-02T05:21:28.934Z,84.60
2018-02-02T05:22:02.598Z,84.60
2018-02-02T05:22:36.264Z,84.50
2018-02-02T05:23:09.953Z,84.50
2018-02-02T05:23:43.625Z,84.50
2018-02-02T05:24:18.045Z,84.40
2018-02-02T05:24:51.692Z,84.40
2018-02-02T05:25:25.345Z,84.30
2018-02-02T05:25:59.010Z,84.30
2018-02-02T05:26:32.654Z,84.20
2018-02-02T05:27:06.309Z,84.20
2018-02-02T05:27:39.973Z,84.10
2018-02-02T05:28:13.648Z,84.10
2018-02-02T05:28:48.077Z,84.20
2018-02-02T05:29:21.734Z,84.10
2018-02-02T05:29:56.150Z,84.10
2018-02-02T05:30:30.570Z,84.10
2018-02-02T05:31:04.477Z,84.10
2018-02-02T05:31:38.181Z,84.10
2018-02-02T05:32:11.835Z,84.10
2018-02-02T05:32:46.253Z,84.20
2018-02-02T05:33:19.270Z,84.20
2018-02-02T05:33:52.921Z,84.10
2018-02-02T05:34:26.566Z,84.10
2018-02-02T05:35:00.225Z,84.00
2018-02-02T05:35:33.885Z,83.90
2018-02-02T05:36:07.535Z,83.90
2018-02-02T05:36:41.193Z,83.90
2018-02-02T05:37:14.529Z,83.90
2018-02-02T05:37:48.953Z,83.90
2018-02-02T05:38:22.638Z,83.80
2018-02-02T05:38:57.061Z,83.80
2018-02-02T05:39:30.714Z,84.40
2018-02-02T05:40:04.465Z,84.30
2018-02-02T05:40:38.118Z,83.80
2018-02-02T05:41:11.766Z,83.80
2018-02-02T05:41:45.418Z,83.80
2018-02-02T05:42:19.173Z,83.80
2018-02-02T05:42:53.613Z,83.90
2018-02-02T05:43:27.302Z,83.80
2018-02-02T05:44:00.961Z,83.80
2018-02-02T05:44:35.383Z,83.90
2018-02-02T05:45:09.037Z,83.80
2018-02-02T05:45:43.462Z,83.90
2018-02-02T05:46:17.875Z,83.90
2018-02-02T05:46:52.306Z,84.00
2018-02-02T05:47:25.974Z,84.00
2018-02-02T05:47:59.745Z,84.10
2018-02-02T05:48:33.434Z,84.10
2018-02-02T05:49:07.078Z,84.20
2018-02-02T05:49:40.724Z,84.40
2018-02-02T05:50:15.142Z,84.50
2018-02-02T05:50:49.556Z,84.60
2018-02-02T05:51:23.250Z,84.60
2018-02-02T05:51:57.057Z,84.70
2018-02-02T05:52:30.726Z,84.80
2018-02-02T05:53:04.373Z,84.80
2018-02-02T05:53:38.054Z,84.90
2018-02-02T05:54:11.713Z,84.90
2018-02-02T05:54:45.380Z,84.90
2018-02-02T05:55:19.041Z,85.00
2018-02-02T05:55:53.471Z,85.20
2018-02-02T05:56:27.898Z,85.10
2018-02-02T05:57:01.567Z,85.10
2018-02-02T05:57:35.981Z,85.20
2018-02-02T05:58:09.841Z,85.20
2018-02-02T05:58:43.642Z,85.20
2018-02-02T05:59:17.284Z,85.20
2018-02-02T05:59:50.937Z,85.20
2018-02-02T06:00:25.040Z,85.20
2018-02-02T06:00:59.486Z,85.20
2018-02-02T06:01:33.142Z,85.20
2018-02-02T06:02:06.792Z,85.20
2018-02-02T06:02:40.447Z,85.30
2018-02-02T06:03:15.638Z,85.40
2018-02-02T06:03:49.000Z,85.40
2018-02-02T06:04:23.448Z,86.00
2018-02-02T06:04:57.124Z,85.50
2018-02-02T06:05:30.777Z,85.60
2018-02-02T06:06:04.425Z,85.60
2018-02-02T06:06:38.085Z,85.60
2018-02-02T06:07:11.742Z,85.60
2018-02-02T06:07:46.171Z,85.80
2018-02-02T06:08:20.616Z,85.80
2018-02-02T06:08:54.313Z,85.80
2018-02-02T06:09:27.974Z,85.80
2018-02-02T06:10:01.633Z,86.40
2018-02-02T06:10:36.065Z,86.20
2018-02-02T06:11:09.736Z,86.00
2018-02-02T06:11:44.170Z,86.10
2018-02-02T06:12:17.825Z,86.00
2018-02-02T06:12:50.814Z,86.10
2018-02-02T06:13:25.340Z,86.30
2018-02-02T06:13:59.021Z,86.30
2018-02-02T06:14:32.688Z,86.40
2018-02-02T06:15:07.127Z,86.50
2018-02-02T06:15:40.459Z,86.40
2018-02-02T06:16:14.125Z,86.50
2018-02-02T06:16:47.811Z,86.50
2018-02-02T06:17:21.480Z,86.60
2018-02-02T06:17:55.142Z,86.60
2018-02-02T06:18:29.569Z,86.70
2018-02-02T06:19:02.604Z,86.60
2018-02-02T06:19:37.335Z,86.70
2018-02-02T06:20:11.762Z,86.80
2018-02-02T06:20:45.413Z,86.80
2018-02-02T06:21:19.076Z,86.80
2018-02-02T06:21:52.757Z,86.90
2018-02-02T06:22:26.241Z,86.90
2018-02-02T06:22:59.897Z,86.90
2018-02-02T06:23:34.324Z,86.80
2018-02-02T06:24:08.022Z,86.80
2018-02-02T06:24:41.693Z,86.80
2018-02-02T06:25:15.404Z,86.80
2018-02-02T06:25:49.991Z,86.90
2018-02-02T06:26:23.657Z,86.80
2018-02-02T06:26:58.091Z,86.80
2018-02-02T06:27:31.767Z,86.70
2018-02-02T06:28:06.251Z,86.60
2018-02-02T06:28:40.078Z,86.60
2018-02-02T06:29:13.769Z,86.70
2018-02-02T06:29:47.433Z,86.70
2018-02-02T06:30:21.541Z,86.60
2018-02-02T06:30:55.980Z,86.50
2018-02-02T06:31:29.654Z,86.50
2018-02-02T06:32:03.310Z,86.40
2018-02-02T06:32:36.983Z,86.40
2018-02-02T06:33:10.653Z,86.30
2018-02-02T06:33:44.305Z,86.30
2018-02-02T06:34:18.760Z,86.20
2018-02-02T06:34:52.627Z,86.20
2018-02-02T06:35:26.303Z,86.20
2018-02-02T06:35:59.962Z,86.20
2018-02-02T06:36:33.636Z,86.10
2018-02-02T06:37:07.305Z,86.10
2018-02-02T06:37:40.978Z,85.90
2018-02-02T06:38:14.304Z,85.90
2018-02-02T06:38:48.781Z,85.80
2018-02-02T06:39:22.473Z,85.80
2018-02-02T06:39:56.149Z,85.70
2018-02-02T06:40:29.810Z,85.60
2018-02-02T06:41:04.240Z,85.10
2018-02-02T06:41:37.919Z,85.70
2018-02-02T06:42:11.596Z,85.60
2018-02-02T06:42:46.034Z,85.50
2018-02-02T06:43:19.182Z,85.50
2018-02-02T06:43:53.625Z,85.30
2018-02-02T06:44:27.339Z,85.30
2018-02-02T06:45:01.010Z,85.30
2018-02-02T06:45:34.673Z,85.20
2018-02-02T06:46:08.373Z,85.20
2018-02-02T06:46:42.042Z,85.20
2018-02-02T06:47:15.830Z,85.20
2018-02-02T06:47:50.262Z,85.20
2018-02-02T06:48:23.925Z,85.20
2018-02-02T06:48:58.374Z,85.20
2018-02-02T06:49:32.305Z,85.20
2018-02-02T06:50:05.972Z,85.10
2018-02-02T06:50:39.695Z,85.00
2018-02-02T06:51:13.526Z,85.00
2018-02-02T06:51:47.194Z,85.00
2018-02-02T06:52:21.625Z,84.90
2018-02-02T06:52:55.313Z,84.80
2018-02-02T06:53:28.983Z,84.80
2018-02-02T06:54:03.417Z,84.80
2018-02-02T06:54:37.113Z,84.80
2018-02-02T06:55:10.777Z,84.70
2018-02-02T06:55:44.456Z,84.70
2018-02-02T06:56:18.890Z,84.70
2018-02-02T06:56:52.563Z,84.60
2018-02-02T06:57:26.237Z,84.60
2018-02-02T06:58:00.650Z,84.70
2018-02-02T06:58:35.089Z,84.60
2018-02-02T06:59:08.108Z,84.60
2018-02-02T06:59:42.585Z,84.50
2018-02-02T07:00:16.258Z,84.50
2018-02-02T07:00:49.916Z,84.50
2018-02-02T07:01:24.350Z,84.60
2018-02-02T07:01:58.012Z,84.50
2018-02-02T07:02:32.448Z,84.40
2018-02-02T07:03:06.110Z,84.40
2018-02-02T07:03:40.342Z,84.40
2018-02-02T07:04:14.004Z,84.40
2018-02-02T07:04:48.461Z,84.30
2018-02-02T07:05:22.124Z,84.30
2018-02-02T07:05:55.449Z,84.30
2018-02-02T07:06:29.133Z,84.30
2018-02-02T07:07:02.785Z,84.20
2018-02-02T07:07:36.543Z,84.20
2018-02-02T07:08:10.982Z,84.10
2018-02-02T07:08:44.646Z,84.10
2018-02-02T07:09:19.109Z,84.10
2018-02-02T07:09:52.805Z,84.00
2018-02-02T07:10:25.815Z,84.00
2018-02-02T07:11:00.342Z,84.10
2018-02-02T07:11:34.013Z,84.10
2018-02-02T07:12:08.456Z,84.10
2018-02-02T07:12:42.114Z,83.90
2018-02-02T07:13:16.545Z,84.10
2018-02-02T07:13:50.209Z,84.10
2018-02-02T07:14:24.654Z,84.10
2018-02-02T07:14:58.328Z,84.10
2018-02-02T07:15:32.013Z,84.00
2018-02-02T07:16:05.496Z,84.00
2018-02-02T07:16:39.161Z,84.00